createdAt,value
2022-10-12T00:00:40.554Z,16.80
2022-10-12T00:03:08.495Z,18.00
2022-10-12T00:05:36.443Z,16.37
2022-10-12T00:08:05.726Z,17.43
2022-10-12T00:10:33.822Z,16.00
2022-10-12T00:13:01.868Z,16.13
2022-10-12T00:15:29.773Z,17.63
2022-10-12T00:17:57.637Z,16.60
2022-10-12T00:20:25.558Z,17.53
2022-10-12T00:22:53.442Z,17.93
2022-10-12T00:25:22.696Z,17.90
2022-10-12T00:27:50.607Z,18.17
2022-10-12T00:30:18.854Z,18.20
2022-10-12T00:32:46.746Z,18.40
2022-10-12T00:35:14.661Z,18.30
2022-10-12T00:37:42.614Z,17.27
2022-10-12T00:40:11.871Z,16.57
2022-10-12T00:42:41.173Z,17.10
2022-10-12T00:45:10.473Z,18.50
2022-10-12T00:47:39.979Z,18.40
2022-10-12T00:50:13.838Z,18.23
2022-10-12T00:52:43.723Z,18.70
2022-10-12T00:55:14.357Z,16.90
2022-10-12T00:57:47.092Z,15.97
2022-10-12T01:00:16.207Z,16.90
2022-10-12T01:02:44.957Z,18.47
2022-10-12T01:05:13.376Z,16.40
2022-10-12T01:07:41.825Z,16.60
2022-10-12T01:10:10.560Z,18.47
2022-10-12T01:12:38.679Z,17.27
2022-10-12T01:15:08.880Z,18.40
2022-10-12T01:17:42.521Z,18.57
2022-10-12T01:20:34.617Z,19.87
2022-10-12T01:23:30.845Z,17.70
2022-10-12T01:26:17.523Z,18.37
2022-10-12T01:28:53.749Z,17.37
2022-10-12T01:31:32.278Z,18.40
2022-10-12T01:34:05.182Z,18.20
2022-10-12T01:36:36.553Z,19.03
2022-10-12T01:39:08.864Z,19.33
2022-10-12T01:41:39.981Z,17.27
2022-10-12T01:44:07.904Z,19.77
2022-10-12T01:46:47.694Z,19.70
2022-10-12T01:49:18.297Z,18.73
2022-10-12T01:52:03.967Z,19.47
2022-10-12T01:54:40.538Z,17.63
2022-10-12T01:57:14.484Z,19.37
2022-10-12T01:59:46.537Z,16.73
2022-10-12T02:02:21.137Z,18.53
2022-10-12T02:04:51.182Z,17.73
2022-10-12T02:07:23.997Z,18.07
2022-10-12T02:09:54.025Z,16.53
2022-10-12T02:12:23.714Z,17.80
2022-10-12T02:14:55.002Z,19.20
2022-10-12T02:17:24.966Z,16.80
2022-10-12T02:19:56.848Z,18.10
2022-10-12T02:22:26.162Z,18.07
2022-10-12T02:24:58.091Z,17.27
2022-10-12T02:27:26.985Z,18.10
2022-10-12T02:29:55.124Z,18.60
2022-10-12T02:32:29.786Z,17.93
2022-10-12T02:35:01.237Z,18.87
2022-10-12T02:37:35.055Z,18.87
2022-10-12T02:40:06.397Z,19.63
2022-10-12T02:43:05.349Z,18.30
2022-10-12T02:45:26.038Z,17.60
2022-10-12T02:47:56.141Z,16.80
2022-10-12T02:50:24.705Z,17.07
2022-10-12T02:52:53.020Z,16.13
2022-10-12T02:55:20.945Z,16.90
2022-10-12T02:57:48.880Z,16.77
2022-10-12T03:00:18.091Z,17.10
2022-10-12T03:02:45.984Z,18.37
2022-10-12T03:05:15.407Z,16.30
2022-10-12T03:07:43.331Z,17.07
2022-10-12T03:10:11.453Z,19.37
2022-10-12T03:12:39.379Z,19.10
2022-10-12T03:15:07.978Z,18.30
2022-10-12T03:17:36.065Z,18.27
2022-10-12T03:20:04.113Z,19.27
2022-10-12T03:22:33.401Z,18.70
2022-10-12T03:25:01.269Z,18.13
2022-10-12T03:27:29.165Z,19.60
2022-10-12T03:29:57.058Z,19.80
2022-10-12T03:32:24.955Z,20.57
2022-10-12T03:34:52.842Z,19.97
2022-10-12T03:37:20.717Z,20.77
2022-10-12T03:39:49.994Z,20.87
2022-10-12T03:42:17.868Z,20.17
2022-10-12T03:44:45.766Z,21.07
2022-10-12T03:47:13.729Z,18.40
2022-10-12T03:49:41.653Z,21.30
2022-10-12T03:52:10.424Z,19.73
2022-10-12T03:54:38.301Z,20.37
2022-10-12T03:57:07.640Z,20.57
2022-10-12T03:59:35.642Z,21.10
2022-10-12T04:02:03.507Z,20.77
2022-10-12T04:04:31.389Z,20.07
2022-10-12T04:06:59.277Z,18.60
2022-10-12T04:09:27.331Z,21.33
2022-10-12T04:11:55.206Z,19.10
2022-10-12T04:14:24.594Z,18.03
2022-10-12T04:16:54.330Z,18.37
2022-10-12T04:19:22.469Z,19.57
2022-10-12T04:21:50.375Z,19.70
2022-10-12T04:24:18.410Z,18.50
2022-10-12T04:26:46.296Z,19.13
2022-10-12T04:29:14.709Z,18.87
2022-10-12T04:31:44.089Z,23.27
2022-10-12T04:34:11.969Z,18.97
2022-10-12T04:36:40.382Z,16.70
2022-10-12T04:39:08.327Z,18.40
2022-10-12T04:41:36.232Z,18.90
2022-10-12T04:44:04.115Z,19.40
2022-10-12T04:46:32.038Z,26.00
2022-10-12T04:49:01.588Z,21.43
2022-10-12T04:51:29.475Z,23.73
2022-10-12T04:53:57.415Z,21.30
2022-10-12T04:56:25.307Z,24.33
2022-10-12T04:58:53.285Z,22.97
2022-10-12T05:01:21.262Z,20.10
2022-10-12T05:03:49.170Z,18.70
2022-10-12T05:06:18.464Z,19.90
2022-10-12T05:08:46.343Z,19.63
2022-10-12T05:11:14.234Z,20.83
2022-10-12T05:13:42.117Z,20.53
2022-10-12T05:16:10.052Z,20.70
2022-10-12T05:18:37.946Z,20.57
2022-10-12T05:21:06.038Z,23.27
2022-10-12T05:23:35.339Z,18.60
2022-10-12T05:26:03.298Z,20.90
2022-10-12T05:28:31.338Z,22.77
2022-10-12T05:30:59.406Z,23.00
2022-10-12T05:33:27.316Z,20.53
2022-10-12T05:35:56.686Z,21.03
2022-10-12T05:38:24.854Z,23.93
2022-10-12T05:40:59.278Z,23.67
2022-10-12T05:43:28.500Z,24.00
2022-10-12T05:45:56.436Z,22.47
2022-10-12T05:48:24.361Z,21.43
2022-10-12T05:50:53.462Z,22.20
2022-10-12T05:53:21.724Z,20.77
